Saint-Eustache, Canada
Current Conditions -  °F | °C
As of 6:00 AM on Wednesday 22 Oct 2014 (Local Time) from CYMX Reporting Station
Overcast Overcast  
Wind Chill: 40°   Ceiling: 3900
Heat Index: 45°   Visibility: 25mi
Dew Point: 32°   Wind: 8mph
Humidity: 61%   Direction: 40°NE
Pressure: 30.24"   Gusts: 17mph
Location:  45.57°N, 73.9°W
Report Text: CYMX 221000Z 04007G15KT 350V090 25SM BKN039 OVC050 07/M00 A3024 RMK SC5SC3 SLP243
Loading
Personal Weather Stations






























Interactive Weather Map
Tropical Storm Tracking
New forecast layout! Learn more

10-Day Weather Forecast

Advertisements
Track Severe Weather on mobile